Time;durP1;ratioP1;P1;durP2;ratioP2;P2;SDS_P1;SDS_P2;PMS_P1;PMS_P2;Temp;Humidity;BMP_temperature;BMP_pressure;BME280_temperature;BME280_humidity;BME280_pressure;Samples;Min_cycle;Max_cycle;Signal;HPM_P1;HPM_P2
2022/09/13 00:01:46;;;;;;;3.90;1.40;;;;;;;-142.37;100.00;59669.53;4974340;28;20034;-67
2022/09/13 00:04:12;;;;;;;2.83;1.65;;;;;;;-142.37;100.00;59669.53;4974463;28;20037;-67
2022/09/13 00:06:38;;;;;;;3.42;2.10;;;;;;;-142.37;100.00;59669.53;4974450;28;20035;-66
2022/09/13 00:09:04;;;;;;;5.75;1.85;;;;;;;-142.37;100.00;59669.53;4973950;28;20515;-68
2022/09/13 00:11:30;;;;;;;3.47;1.60;;;;;;;-142.37;100.00;59669.53;4956665;28;20031;-67
2022/09/13 00:13:57;;;;;;;3.30;1.73;;;;;;;-142.37;100.00;59669.53;4956745;28;20033;-68
2022/09/13 00:16:25;;;;;;;3.70;1.80;;;;;;;-142.37;100.00;59669.53;4956745;28;20042;-68
2022/09/13 00:18:52;;;;;;;4.45;2.25;;;;;;;-142.37;100.00;59669.53;4974127;28;20034;-67
2022/09/13 00:21:20;;;;;;;3.85;2.03;;;;;;;-142.37;100.00;59669.53;4974289;28;20105;-68
2022/09/13 00:23:48;;;;;;;1.73;1.60;;;;;;;-142.37;100.00;59669.53;4956800;28;20031;-66
2022/09/13 00:26:20;;;;;;;4.38;1.73;;;;;;;-142.37;100.00;59669.53;4955829;28;20035;-68
2022/09/13 00:28:50;;;;;;;5.07;2.42;;;;;;;-142.37;100.00;59669.53;4974462;28;20125;-68
2022/09/13 00:31:17;;;;;;;5.35;1.70;;;;;;;-142.37;100.00;59669.53;4973877;28;20503;-67
2022/09/13 00:33:42;;;;;;;2.22;1.50;;;;;;;-142.37;100.00;59669.53;4956143;28;20046;-69
2022/09/13 00:36:14;;;;;;;2.92;1.85;;;;;;;-142.37;100.00;59669.53;4956485;28;20122;-70
2022/09/13 00:38:41;;;;;;;1.92;1.52;;;;;;;-142.37;100.00;59669.53;4973724;28;20512;-67
2022/09/13 00:41:10;;;;;;;3.42;1.80;;;;;;;-142.37;100.00;59669.53;4955991;28;20038;-69
2022/09/13 00:44:00;;;;;;;2.92;1.65;;;;;;;-142.37;100.00;59669.53;4973898;28;20118;-69
2022/09/13 00:46:25;;;;;;;4.32;1.58;;;;;;;-142.37;100.00;59669.53;4973861;28;20066;-68
2022/09/13 00:48:56;;;;;;;3.45;2.08;;;;;;;-142.37;100.00;59669.53;4972294;28;20547;-67
2022/09/13 00:51:22;;;;;;;7.25;1.65;;;;;;;-142.37;100.00;59669.53;4956172;28;20062;-67
2022/09/13 00:53:51;;;;;;;1.58;1.30;;;;;;;-142.37;100.00;59669.53;4973569;28;20030;-68
2022/09/13 00:56:27;;;;;;;4.88;1.75;;;;;;;-142.37;100.00;59669.53;4973759;28;20058;-68
2022/09/13 00:59:01;;;;;;;4.20;1.52;;;;;;;-142.37;100.00;59669.53;4973539;28;20035;-69
2022/09/13 01:01:36;;;;;;;4.03;1.83;;;;;;;-142.37;100.00;59669.53;4956273;28;20559;-67
2022/09/13 01:04:03;;;;;;;2.67;2.05;;;;;;;-142.37;100.00;59669.53;4973269;28;20480;-70
2022/09/13 01:06:32;;;;;;;3.35;1.48;;;;;;;-142.37;100.00;59669.53;4973524;28;20038;-67
2022/09/13 01:09:03;;;;;;;3.92;1.83;;;;;;;-142.37;100.00;59669.53;4973168;28;20045;-67
2022/09/13 01:11:54;;;;;;;2.38;1.60;;;;;;;-142.37;100.00;59669.53;4973319;28;20042;-67
2022/09/13 01:14:22;;;;;;;1.45;1.30;;;;;;;-142.37;100.00;59669.53;4955768;28;20063;-68
2022/09/13 01:16:48;;;;;;;1.60;1.50;;;;;;;-142.37;100.00;59669.53;4973167;28;20037;-68
2022/09/13 01:19:14;;;;;;;1.85;1.30;;;;;;;-142.37;100.00;59669.53;4973291;28;20062;-68
2022/09/13 01:22:06;;;;;;;1.50;1.33;;;;;;;-142.37;100.00;59669.53;4973389;28;20073;-68
2022/09/13 01:24:50;;;;;;;2.10;1.40;;;;;;;-142.37;100.00;59669.53;4973137;28;20082;-69
2022/09/13 01:27:19;;;;;;;5.30;1.80;;;;;;;-142.37;100.00;59669.53;4955702;28;20034;-68
2022/09/13 01:30:01;;;;;;;3.03;1.50;;;;;;;-142.37;100.00;59669.53;4973444;28;20039;-67
2022/09/13 01:32:51;;;;;;;5.18;2.30;;;;;;;-142.37;100.00;59669.53;4971597;28;20061;-69
2022/09/13 01:35:54;;;;;;;5.45;2.15;;;;;;;-142.37;100.00;59669.53;4955489;28;20041;-67
2022/09/13 01:38:50;;;;;;;7.70;1.70;;;;;;;-142.37;100.00;59669.53;4976327;28;20062;-68
2022/09/13 01:41:41;;;;;;;1.92;1.42;;;;;;;-142.37;100.00;59669.53;4975442;28;20053;-68
2022/09/13 01:44:48;;;;;;;1.55;1.20;;;;;;;-142.37;100.00;59669.53;4975779;28;20027;-68
2022/09/13 01:47:28;;;;;;;9.55;2.20;;;;;;;-142.37;100.00;59669.53;4959261;28;20082;-68
2022/09/13 01:50:03;;;;;;;3.00;1.60;;;;;;;-142.37;100.00;59669.53;4976639;28;20039;-68
2022/09/13 01:53:17;;;;;;;2.55;1.77;;;;;;;-142.37;100.00;59669.53;4977031;28;20384;-70
2022/09/13 01:55:56;;;;;;;3.40;1.33;;;;;;;-142.37;100.00;59669.53;4919933;29;20035;-69
2022/09/13 01:59:01;;;;;;;7.40;1.60;;;;;;;-142.37;100.00;59669.53;4954400;28;20039;-68
2022/09/13 02:01:38;;;;;;;3.00;1.33;;;;;;;-142.37;100.00;59669.53;4976888;28;20031;-67
2022/09/13 02:04:09;;;;;;;1.88;1.48;;;;;;;-142.37;100.00;59669.53;4959066;28;20037;-68
2022/09/13 02:06:41;;;;;;;2.03;1.50;;;;;;;-142.37;100.00;59669.53;4976384;28;20118;-69
2022/09/13 02:09:13;;;;;;;2.20;1.52;;;;;;;-142.37;100.00;59669.53;4959018;28;20392;-68
2022/09/13 02:11:44;;;;;;;2.63;1.50;;;;;;;-142.37;100.00;59669.53;4976201;28;20035;-68
2022/09/13 02:14:09;;;;;;;3.35;1.92;;;;;;;-142.37;100.00;59669.53;4959112;28;20399;-69
2022/09/13 02:17:00;;;;;;;3.78;1.45;;;;;;;-142.37;100.00;59669.53;4976242;28;20031;-70
2022/09/13 02:19:35;;;;;;;2.83;2.03;;;;;;;-142.37;100.00;59669.53;4976237;28;20472;-68
2022/09/13 02:22:05;;;;;;;2.83;1.90;;;;;;;-142.37;100.00;59669.53;4958873;28;20038;-68
2022/09/13 02:24:38;;;;;;;3.78;1.50;;;;;;;-142.37;100.00;59669.53;4958849;28;20488;-68
2022/09/13 02:27:18;;;;;;;4.53;1.90;;;;;;;-142.37;100.00;59669.53;4975997;28;20120;-69
2022/09/13 02:29:46;;;;;;;9.05;2.33;;;;;;;-142.37;100.00;59669.53;4976507;28;20038;-68
2022/09/13 02:32:28;;;;;;;4.55;1.45;;;;;;;-142.37;100.00;59669.53;4958501;28;20499;-68
2022/09/13 02:35:04;;;;;;;5.75;2.33;;;;;;;-142.37;100.00;59669.53;4975962;28;20437;-69
2022/09/13 02:37:33;;;;;;;2.15;1.55;;;;;;;-142.37;100.00;59669.53;4958590;28;20054;-68
2022/09/13 02:40:04;;;;;;;2.45;1.35;;;;;;;-142.37;100.00;59669.53;4974798;28;20077;-68
2022/09/13 02:43:09;;;;;;;5.35;2.03;;;;;;;-142.37;100.00;59669.53;4976018;28;20039;-68
2022/09/13 02:45:55;;;;;;;2.50;1.42;;;;;;;-142.37;100.00;59669.53;4919153;29;20032;-68
2022/09/13 02:48:51;;;;;;;2.53;1.48;;;;;;;-142.37;100.00;59669.53;4970819;28;20451;-69
2022/09/13 02:51:28;;;;;;;3.42;1.83;;;;;;;-142.37;100.00;59669.53;4957924;28;20035;-68
2022/09/13 02:54:23;;;;;;;2.92;1.63;;;;;;;-142.37;100.00;59669.53;4976125;28;20457;-68
2022/09/13 02:56:55;;;;;;;5.28;2.45;;;;;;;-142.37;100.00;59669.53;4958478;28;20496;-69
2022/09/13 02:59:23;;;;;;;2.97;1.63;;;;;;;-142.37;100.00;59669.53;4974358;28;20047;-68
2022/09/13 03:02:08;;;;;;;2.75;1.95;;;;;;;-142.37;100.00;59669.53;4974445;28;20502;-70
2022/09/13 03:04:34;;;;;;;2.70;1.88;;;;;;;-142.37;100.00;59669.53;4975476;28;20082;-69
2022/09/13 03:07:03;;;;;;;3.28;1.60;;;;;;;-142.37;100.00;59669.53;4975287;28;20031;-68
2022/09/13 03:09:30;;;;;;;5.70;1.67;;;;;;;-142.37;100.00;59669.53;4958015;28;20030;-69
2022/09/13 03:12:37;;;;;;;4.45;2.42;;;;;;;-142.37;100.00;59669.53;4975322;28;20555;-69
2022/09/13 03:15:36;;;;;;;3.88;1.58;;;;;;;-142.37;100.00;59669.53;4918190;29;20493;-68
2022/09/13 03:18:36;;;;;;;2.88;2.08;;;;;;;-142.37;100.00;59669.53;4974106;28;20046;-68
2022/09/13 03:21:10;;;;;;;5.18;1.92;;;;;;;-142.37;100.00;59669.53;4957436;28;20162;-69
2022/09/13 03:24:10;;;;;;;2.80;1.90;;;;;;;-142.37;100.00;59669.53;4957901;28;20035;-69
2022/09/13 03:26:38;;;;;;;9.18;2.10;;;;;;;-142.37;100.00;59669.53;4974804;28;20050;-69
2022/09/13 03:29:30;;;;;;;3.17;1.70;;;;;;;-142.37;100.00;59669.53;4973362;28;20034;-68
2022/09/13 03:32:22;;;;;;;4.82;1.95;;;;;;;-142.37;100.00;59669.53;4973194;28;20065;-68
2022/09/13 03:35:04;;;;;;;5.07;1.80;;;;;;;-142.37;100.00;59669.53;4974730;28;20066;-69
2022/09/13 03:37:54;;;;;;;5.75;2.70;;;;;;;-142.37;100.00;59669.53;4973281;28;20031;-69
2022/09/13 03:40:28;;;;;;;2.72;1.70;;;;;;;-142.37;100.00;59669.53;4974912;28;20479;-68
2022/09/13 03:43:21;;;;;;;2.47;1.95;;;;;;;-142.37;100.00;59669.53;4973496;28;20037;-70
2022/09/13 03:45:56;;;;;;;4.38;2.10;;;;;;;-142.37;100.00;59669.53;4929956;28;20125;-68
2022/09/13 03:48:22;;;;;;;1.90;1.60;;;;;;;-142.37;100.00;59669.53;4956950;28;20034;-70
2022/09/13 03:50:49;;;;;;;5.07;2.08;;;;;;;-142.37;100.00;59669.53;4957228;28;20439;-70
2022/09/13 03:53:26;;;;;;;5.18;2.42;;;;;;;-142.37;100.00;59669.53;4972698;28;20418;-69
2022/09/13 03:55:52;;;;;;;3.42;1.85;;;;;;;-142.37;100.00;59669.53;4956803;28;20023;-71
2022/09/13 03:58:19;;;;;;;3.80;1.80;;;;;;;-142.37;100.00;59669.53;4972940;28;20038;-68
2022/09/13 04:00:45;;;;;;;2.35;1.52;;;;;;;-142.37;100.00;59669.53;4974169;28;20082;-70
2022/09/13 04:03:13;;;;;;;5.38;2.33;;;;;;;-142.37;100.00;59669.53;4956457;28;20484;-70
2022/09/13 04:05:40;;;;;;;3.35;2.10;;;;;;;-142.37;100.00;59669.53;4974302;28;20035;-70
2022/09/13 04:08:07;;;;;;;6.25;2.60;;;;;;;-142.37;100.00;59669.53;4974282;28;20031;-70
2022/09/13 04:10:35;;;;;;;6.18;1.80;;;;;;;-142.37;100.00;59669.53;4973897;28;20116;-69
2022/09/13 04:13:01;;;;;;;4.65;2.25;;;;;;;-142.37;100.00;59669.53;4973847;28;20034;-70
2022/09/13 04:15:28;;;;;;;3.50;1.98;;;;;;;-142.37;100.00;59669.53;4973988;28;20476;-69
2022/09/13 04:17:53;;;;;;;3.00;1.90;;;;;;;-142.37;100.00;59669.53;4956655;28;20380;-69
2022/09/13 04:20:19;;;;;;;2.33;1.50;;;;;;;-142.37;100.00;59669.53;4956387;28;20034;-70
2022/09/13 04:22:56;;;;;;;3.83;2.45;;;;;;;-142.37;100.00;59669.53;4956663;28;20062;-69
2022/09/13 04:25:22;;;;;;;7.75;2.53;;;;;;;-142.37;100.00;59669.53;4956444;28;20447;-72
2022/09/13 04:27:54;;;;;;;5.35;2.17;;;;;;;-142.37;100.00;59669.53;4973102;28;20522;-70
2022/09/13 04:30:20;;;;;;;2.58;1.75;;;;;;;-142.37;100.00;59669.53;4956156;28;20514;-70
2022/09/13 04:32:45;;;;;;;3.90;1.98;;;;;;;-142.37;100.00;59669.53;4973429;28;20061;-70
2022/09/13 04:35:11;;;;;;;4.45;2.20;;;;;;;-142.37;100.00;59669.53;4973499;28;20391;-70
2022/09/13 04:37:37;;;;;;;3.60;1.60;;;;;;;-142.37;100.00;59669.53;4973816;28;20070;-68
2022/09/13 04:40:05;;;;;;;5.18;2.28;;;;;;;-142.37;100.00;59669.53;4973989;28;20509;-69
2022/09/13 04:42:31;;;;;;;5.80;2.08;;;;;;;-142.37;100.00;59669.53;4973528;28;20026;-71
2022/09/13 04:44:56;;;;;;;5.65;2.25;;;;;;;-142.37;100.00;59669.53;4956023;28;20053;-70
2022/09/13 04:47:22;;;;;;;5.13;2.33;;;;;;;-142.37;100.00;59669.53;4956141;28;20488;-69
2022/09/13 04:49:48;;;;;;;3.60;2.47;;;;;;;-142.37;100.00;59669.53;4955914;28;20031;-70
2022/09/13 04:52:14;;;;;;;1.98;1.27;;;;;;;-142.37;100.00;59669.53;4955460;28;20097;-69
2022/09/13 04:54:39;;;;;;;3.45;1.77;;;;;;;-142.37;100.00;59669.53;4973232;28;20034;-69
2022/09/13 04:57:05;;;;;;;4.90;2.20;;;;;;;-142.37;100.00;59669.53;4955389;28;20031;-69
2022/09/13 04:59:31;;;;;;;5.03;2.25;;;;;;;-142.37;100.00;59669.53;4955139;28;20037;-70
2022/09/13 05:01:56;;;;;;;3.03;2.08;;;;;;;-142.37;100.00;59669.53;4955937;28;20399;-70
2022/09/13 05:04:22;;;;;;;4.65;1.92;;;;;;;-142.37;100.00;59669.53;4955940;28;20041;-70
2022/09/13 05:06:48;;;;;;;4.00;2.13;;;;;;;-142.37;100.00;59669.53;4954966;28;20488;-69
2022/09/13 05:09:14;;;;;;;2.30;1.95;;;;;;;-142.37;100.00;59669.53;4972278;28;20105;-70
2022/09/13 05:11:41;;;;;;;5.28;2.10;;;;;;;-142.37;100.00;59669.53;4974716;28;20037;-69
2022/09/13 05:14:09;;;;;;;2.40;1.60;;;;;;;-142.37;100.00;59669.53;4961994;28;20057;-71
2022/09/13 05:16:35;;;;;;;1.35;1.20;;;;;;;-142.37;100.00;59669.53;4961769;28;20403;-70
2022/09/13 05:19:02;;;;;;;4.10;2.10;;;;;;;-142.37;100.00;59669.53;4979381;28;20038;-71
2022/09/13 05:21:29;;;;;;;2.17;1.45;;;;;;;-142.37;100.00;59669.53;4978778;28;20033;-69
2022/09/13 05:23:56;;;;;;;3.90;2.42;;;;;;;-142.37;100.00;59669.53;4961661;28;20275;-70
2022/09/13 05:26:23;;;;;;;5.32;1.52;;;;;;;-142.37;100.00;59669.53;4978883;28;20022;-71
2022/09/13 05:28:49;;;;;;;2.80;1.13;;;;;;;-142.37;100.00;59669.53;4978962;28;20113;-70
2022/09/13 05:31:17;;;;;;;4.85;2.08;;;;;;;-142.37;100.00;59669.53;4961387;28;20041;-70
2022/09/13 05:33:45;;;;;;;5.05;2.22;;;;;;;-142.37;100.00;59669.53;4976745;28;20065;-69
2022/09/13 05:36:11;;;;;;;3.55;1.75;;;;;;;-142.37;100.00;59669.53;4978991;28;20030;-72
2022/09/13 05:38:37;;;;;;;4.22;2.20;;;;;;;-142.37;100.00;59669.53;4978119;28;20037;-72
2022/09/13 05:41:05;;;;;;;4.10;2.33;;;;;;;-142.37;100.00;59669.53;4961044;28;20111;-72
2022/09/13 05:43:33;;;;;;;3.30;1.80;;;;;;;-142.37;100.00;59669.53;4961766;28;20110;-70
2022/09/13 05:46:04;;;;;;;2.75;1.60;;;;;;;-142.37;100.00;59669.53;4978685;28;20118;-71
2022/09/13 05:48:31;;;;;;;3.03;1.92;;;;;;;-142.37;100.00;59669.53;4978079;28;20027;-72
2022/09/13 05:51:04;;;;;;;3.53;1.95;;;;;;;-142.37;100.00;59669.53;4977901;28;20027;-72
2022/09/13 05:53:31;;;;;;;2.92;1.70;;;;;;;-142.37;100.00;59669.53;4960881;28;20031;-71
2022/09/13 05:55:57;;;;;;;2.53;1.70;;;;;;;-142.37;100.00;59669.53;4960591;28;20411;-71
2022/09/13 05:58:23;;;;;;;6.85;2.42;;;;;;;-142.37;100.00;59669.53;4960819;28;20034;-71
2022/09/13 06:00:54;;;;;;;5.63;1.80;;;;;;;-142.37;100.00;59669.53;4960558;28;20066;-72
2022/09/13 06:03:21;;;;;;;3.53;1.65;;;;;;;-142.37;100.00;59669.53;4960120;28;20054;-72
2022/09/13 06:05:46;;;;;;;4.97;2.17;;;;;;;-142.37;100.00;59669.53;4977959;28;20031;-71
2022/09/13 06:08:12;;;;;;;2.88;1.38;;;;;;;-142.37;100.00;59669.53;4977644;28;20031;-72
2022/09/13 06:10:38;;;;;;;2.92;1.70;;;;;;;-142.37;100.00;59669.53;4960756;28;20070;-71
2022/09/13 06:13:03;;;;;;;7.50;1.42;;;;;;;-142.37;100.00;59669.53;4976617;28;20045;-71
2022/09/13 06:15:29;;;;;;;2.60;1.40;;;;;;;-142.37;100.00;59669.53;4960403;28;20506;-72
2022/09/13 06:17:54;;;;;;;3.22;1.83;;;;;;;-142.37;100.00;59669.53;4960060;28;20045;-71
2022/09/13 06:20:20;;;;;;;3.53;1.83;;;;;;;-142.37;100.00;59669.53;4959577;28;20147;-71
2022/09/13 06:22:49;;;;;;;4.40;1.75;;;;;;;-142.37;100.00;59669.53;4959598;28;20130;-71
2022/09/13 06:25:15;;;;;;;5.63;1.90;;;;;;;-142.37;100.00;59669.53;4974245;28;20437;-70
2022/09/13 06:27:41;;;;;;;10.00;2.65;;;;;;;-142.37;100.00;59669.53;4957733;28;20023;-72
2022/09/13 06:30:07;;;;;;;3.60;1.73;;;;;;;-142.37;100.00;59669.53;4974650;28;20042;-72
2022/09/13 06:32:34;;;;;;;2.22;1.63;;;;;;;-142.37;100.00;59669.53;4973781;28;20059;-72
2022/09/13 06:35:00;;;;;;;1.70;1.08;;;;;;;-142.37;100.00;59669.53;4974869;28;20514;-74
2022/09/13 06:37:25;;;;;;;2.85;1.73;;;;;;;-142.37;100.00;59669.53;4973473;28;20026;-73
2022/09/13 06:39:51;;;;;;;3.53;1.23;;;;;;;-142.37;100.00;59669.53;4974621;28;20030;-71
2022/09/13 06:42:17;;;;;;;3.22;1.40;;;;;;;-142.37;100.00;59669.53;4957391;28;20041;-71
2022/09/13 06:44:44;;;;;;;3.92;1.20;;;;;;;-142.37;100.00;59669.53;4957405;28;20117;-72
2022/09/13 06:47:11;;;;;;;2.63;1.42;;;;;;;-142.37;100.00;59669.53;4974700;28;20043;-72
2022/09/13 06:49:38;;;;;;;7.18;3.97;;;;;;;-142.37;100.00;59669.53;4973136;28;20196;-72
2022/09/13 06:52:04;;;;;;;6.80;2.20;;;;;;;-142.37;100.00;59669.53;4956881;28;20030;-72
2022/09/13 06:54:30;;;;;;;4.13;1.80;;;;;;;-142.37;100.00;59669.53;4974011;28;20038;-70
2022/09/13 06:56:55;;;;;;;2.92;1.67;;;;;;;-142.37;100.00;59669.53;4957454;28;20480;-71
2022/09/13 06:59:21;;;;;;;1.98;1.15;;;;;;;-142.37;100.00;59669.53;4974993;28;20031;-70
2022/09/13 07:01:47;;;;;;;3.80;1.90;;;;;;;-142.37;100.00;59669.53;4974812;28;20043;-70
2022/09/13 07:04:15;;;;;;;1.52;0.77;;;;;;;-142.37;100.00;59669.53;4974482;28;20037;-72
2022/09/13 07:06:46;;;;;;;3.75;2.08;;;;;;;-142.37;100.00;59669.53;4975025;28;20035;-72
2022/09/13 07:09:18;;;;;;;4.97;1.50;;;;;;;-142.37;100.00;59669.53;4974076;28;20027;-73
2022/09/13 07:11:45;;;;;;;2.15;1.00;;;;;;;-142.37;100.00;59669.53;4974470;28;20035;-70
2022/09/13 07:14:20;;;;;;;3.20;1.65;;;;;;;-142.37;100.00;59669.53;4974330;28;20030;-70
2022/09/13 07:16:46;;;;;;;7.05;2.30;;;;;;;-142.37;100.00;59669.53;4957066;28;20357;-68
2022/09/13 07:19:23;;;;;;;5.80;2.63;;;;;;;-142.37;100.00;59669.53;4956969;28;20085;-67
2022/09/13 07:21:49;;;;;;;4.35;1.73;;;;;;;-142.37;100.00;59669.53;4974770;28;20037;-65
2022/09/13 07:24:16;;;;;;;5.63;3.17;;;;;;;-142.37;100.00;59669.53;4974597;28;20098;-67
2022/09/13 07:26:42;;;;;;;7.65;3.17;;;;;;;-142.37;100.00;59669.53;4957109;28;20510;-69
2022/09/13 07:29:12;;;;;;;5.03;3.33;;;;;;;-142.37;100.00;59669.53;4974243;28;20035;-68
2022/09/13 07:31:39;;;;;;;5.57;3.08;;;;;;;-142.37;100.00;59669.53;4956100;28;20180;-70
2022/09/13 07:34:10;;;;;;;7.38;3.60;;;;;;;-142.37;100.00;59669.53;4972183;28;20069;-72
2022/09/13 07:36:36;;;;;;;6.10;3.17;;;;;;;-142.37;100.00;59669.53;4956896;28;20027;-74
2022/09/13 07:39:04;;;;;;;5.05;2.85;;;;;;;-142.37;100.00;59669.53;4956520;28;20507;-72
2022/09/13 07:41:30;;;;;;;8.90;2.67;;;;;;;-142.37;100.00;59669.53;4956329;28;20368;-65
2022/09/13 07:43:59;;;;;;;7.47;3.35;;;;;;;-142.37;100.00;59669.53;4973747;28;20114;-58
2022/09/13 07:46:32;;;;;;;6.47;3.28;;;;;;;-142.37;100.00;59669.53;4956530;28;20035;-63
2022/09/13 07:48:59;;;;;;;6.88;4.10;;;;;;;-142.37;100.00;59669.53;4956775;28;20072;-59
2022/09/13 07:51:27;;;;;;;9.60;3.97;;;;;;;-142.37;100.00;59669.53;4973743;28;20030;-60
2022/09/13 07:54:01;;;;;;;15.10;6.63;;;;;;;-142.37;100.00;59669.53;4973712;28;20041;-58
2022/09/13 07:56:31;;;;;;;12.63;6.25;;;;;;;-142.37;100.00;59669.53;4973458;28;20035;-60
2022/09/13 07:58:59;;;;;;;16.25;8.18;;;;;;;-142.37;100.00;59669.53;4955801;28;20100;-64
2022/09/13 08:01:38;;;;;;;12.27;7.57;;;;;;;-142.37;100.00;59669.53;4973698;28;20031;-60
2022/09/13 08:04:12;;;;;;;16.27;6.75;;;;;;;-142.37;100.00;59669.53;4973310;28;20135;-60
2022/09/13 08:06:39;;;;;;;2.10;1.63;;;;;;;-142.37;100.00;59669.53;4973349;28;20114;-58
2022/09/13 08:09:07;;;;;;;0.15;0.15;;;;;;;-142.37;100.00;59669.53;4955854;28;20205;-57
2022/09/13 08:11:36;;;;;;;0.10;0.10;;;;;;;-142.37;100.00;59669.53;4973625;28;20043;-57
2022/09/13 08:14:02;;;;;;;0.10;0.10;;;;;;;-142.37;100.00;59669.53;4973519;28;20077;-57
2022/09/13 08:16:29;;;;;;;0.17;0.17;;;;;;;-142.37;100.00;59669.53;4956149;28;20123;-59
2022/09/13 08:18:57;;;;;;;0.10;0.10;;;;;;;-142.37;100.00;59669.53;4972358;28;20034;-58
2022/09/13 08:21:24;;;;;;;0.68;0.55;;;;;;;-142.37;100.00;59669.53;4973717;28;20344;-56
2022/09/13 08:23:55;;;;;;;2.42;0.88;;;;;;;-142.37;100.00;59669.53;4973140;28;20034;-57
2022/09/13 08:26:20;;;;;;;0.10;0.10;;;;;;;-142.37;100.00;59669.53;4955914;28;20038;-57
2022/09/13 08:28:46;;;;;;;0.10;0.10;;;;;;;-142.37;100.00;59669.53;4955236;28;20101;-58
2022/09/13 08:31:16;;;;;;;0.20;0.20;;;;;;;-142.37;100.00;59669.53;4972999;28;20077;-55
2022/09/13 08:33:47;;;;;;;2.72;0.77;;;;;;;-142.37;100.00;59669.53;4972528;28;20055;-56
2022/09/13 08:36:14;;;;;;;0.10;0.10;;;;;;;-142.37;100.00;59669.53;4972823;28;20484;-56
2022/09/13 08:38:45;;;;;;;0.00;0.00;;;;;;;-142.37;100.00;59669.53;4955365;28;20097;-56
2022/09/13 08:41:46;;;;;;;0.10;0.10;;;;;;;-142.37;100.00;59669.53;4972488;28;20066;-57
2022/09/13 08:44:49;;;;;;;0.32;0.32;;;;;;;-142.37;100.00;59669.53;4972678;28;20094;-57
2022/09/13 08:47:46;;;;;;;0.40;0.40;;;;;;;-142.37;100.00;59669.53;4947525;28;20077;-57
2022/09/13 08:50:17;;;;;;;0.20;0.20;;;;;;;-142.37;100.00;59669.53;4955115;28;20027;-60
2022/09/13 08:53:01;;;;;;;0.00;0.00;;;;;;;-142.37;100.00;59669.53;4972527;28;20031;-57
2022/09/13 08:55:34;;;;;;;0.00;0.00;;;;;;;-142.37;100.00;59669.53;4971678;28;20181;-58
2022/09/13 08:58:37;;;;;;;3.70;0.30;;;;;;;-142.37;100.00;59669.53;4955344;28;20038;-57
2022/09/13 09:01:24;;;;;;;0.00;0.00;;;;;;;-142.37;100.00;59669.53;4972472;28;20549;-59
2022/09/13 09:04:06;;;;;;;0.10;0.10;;;;;;;-142.37;100.00;59669.53;4972821;28;20089;-58
2022/09/13 09:06:34;;;;;;;0.68;0.43;;;;;;;-142.37;100.00;59669.53;4955043;28;20030;-58
2022/09/13 09:08:59;;;;;;;0.00;0.00;;;;;;;-142.37;100.00;59669.53;4972369;28;20451;-58
2022/09/13 09:11:47;;;;;;;0.20;0.20;;;;;;;-142.37;100.00;59669.53;4970331;28;20034;-58
2022/09/13 09:14:31;;;;;;;1.08;0.98;;;;;;;-142.37;100.00;59669.53;4971010;28;20027;-58
2022/09/13 09:17:02;;;;;;;0.55;0.50;;;;;;;-142.37;100.00;59669.53;4971601;28;20041;-57
2022/09/13 09:19:52;;;;;;;0.10;0.10;;;;;;;-142.37;100.00;59669.53;4972286;28;20042;-57
2022/09/13 09:22:23;;;;;;;0.10;0.10;;;;;;;-142.37;100.00;59669.53;4972144;28;20031;-57
2022/09/13 09:24:56;;;;;;;0.80;0.75;;;;;;;-142.37;100.00;59669.53;4955178;28;20046;-61
2022/09/13 09:27:22;;;;;;;0.30;0.30;;;;;;;-142.37;100.00;59669.53;4971988;28;20062;-58
2022/09/13 09:29:52;;;;;;;0.20;0.20;;;;;;;-142.37;100.00;59669.53;4972447;28;20069;-58
2022/09/13 09:32:34;;;;;;;0.80;0.57;;;;;;;-142.37;100.00;59669.53;4971644;28;20479;-59
2022/09/13 09:35:17;;;;;;;1.17;0.65;;;;;;;-142.37;100.00;59669.53;4970476;28;20089;-58
2022/09/13 09:37:55;;;;;;;0.25;0.22;;;;;;;-142.37;100.00;59669.53;4970982;28;20031;-61
2022/09/13 09:40:21;;;;;;;0.20;0.20;;;;;;;-142.37;100.00;59669.53;4972243;28;20047;-61
2022/09/13 09:42:48;;;;;;;0.40;0.40;;;;;;;-142.37;100.00;59669.53;4971542;28;20027;-60
2022/09/13 09:45:33;;;;;;;0.55;0.55;;;;;;;-142.37;100.00;59669.53;4954312;28;20049;-59
2022/09/13 09:48:06;;;;;;;0.20;0.20;;;;;;;-142.37;100.00;59669.53;4971495;28;20054;-60
2022/09/13 09:50:35;;;;;;;0.17;0.17;;;;;;;-142.37;100.00;59669.53;4953954;28;20081;-60
2022/09/13 09:53:01;;;;;;;0.00;0.00;;;;;;;-142.37;100.00;59669.53;4971117;28;20122;-58
2022/09/13 09:55:34;;;;;;;0.35;0.25;;;;;;;-142.37;100.00;59669.53;4970970;28;20110;-59
2022/09/13 09:58:04;;;;;;;0.15;0.15;;;;;;;-142.37;100.00;59669.53;4972571;28;20034;-59
2022/09/13 10:00:34;;;;;;;0.20;0.20;;;;;;;-142.37;100.00;59669.53;4975757;28;20034;-60
2022/09/13 10:03:17;;;;;;;1.20;0.43;;;;;;;-142.37;100.00;59669.53;4975231;28;20030;-58
2022/09/13 10:05:45;;;;;;;0.10;0.10;;;;;;;-142.37;100.00;59669.53;4974765;28;20043;-60
2022/09/13 10:08:27;;;;;;;0.25;0.25;;;;;;;-142.37;100.00;59669.53;4974779;28;20118;-60
2022/09/13 10:10:56;;;;;;;0.70;0.70;;;;;;;-142.37;100.00;59669.53;4958005;28;20046;-59
2022/09/13 10:13:23;;;;;;;0.57;0.57;;;;;;;-142.37;100.00;59669.53;4974921;28;20027;-60
2022/09/13 10:15:57;;;;;;;0.45;0.43;;;;;;;-142.37;100.00;59669.53;4974916;28;20026;-59
2022/09/13 10:18:28;;;;;;;3.22;3.13;;;;;;;-142.37;100.00;59669.53;4975066;28;20084;-61
2022/09/13 10:21:06;;;;;;;0.52;0.30;;;;;;;-142.37;100.00;59669.53;4974973;28;20109;-58
2022/09/13 10:23:34;;;;;;;1.20;1.00;;;;;;;-142.37;100.00;59669.53;4974888;28;20464;-61
2022/09/13 10:26:06;;;;;;;0.30;0.30;;;;;;;-142.37;100.00;59669.53;4957764;28;20049;-59
2022/09/13 10:28:46;;;;;;;1.55;1.00;;;;;;;-142.37;100.00;59669.53;4973766;28;20066;-59
2022/09/13 10:31:15;;;;;;;0.77;0.35;;;;;;;-142.37;100.00;59669.53;4974716;28;20495;-61
2022/09/13 10:33:50;;;;;;;0.55;0.55;;;;;;;-142.37;100.00;59669.53;4973591;28;20407;-63
2022/09/13 10:36:30;;;;;;;0.43;0.25;;;;;;;-142.37;100.00;59669.53;4956971;28;20073;-59
2022/09/13 10:39:00;;;;;;;4.88;0.20;;;;;;;-142.37;100.00;59669.53;4974582;28;20031;-61
2022/09/13 10:41:29;;;;;;;0.20;0.20;;;;;;;-142.37;100.00;59669.53;4975073;28;20089;-61
2022/09/13 10:44:00;;;;;;;1.55;0.75;;;;;;;-142.37;100.00;59669.53;4973752;28;20156;-60
2022/09/13 10:46:30;;;;;;;0.32;0.17;;;;;;;-142.37;100.00;59669.53;4974724;28;20472;-59
2022/09/13 10:48:56;;;;;;;0.32;0.32;;;;;;;-142.37;100.00;59669.53;4974429;28;20488;-61
2022/09/13 10:51:34;;;;;;;0.55;0.55;;;;;;;-142.37;100.00;59669.53;4974594;28;20065;-59
2022/09/13 10:54:14;;;;;;;0.45;0.45;;;;;;;-142.37;100.00;59669.53;4956854;28;20351;-60
2022/09/13 10:56:42;;;;;;;1.48;1.30;;;;;;;-142.37;100.00;59669.53;4974595;28;20030;-60
2022/09/13 10:59:28;;;;;;;2.10;2.05;;;;;;;-142.37;100.00;59669.53;4974463;28;20113;-59
2022/09/13 11:02:22;;;;;;;0.10;0.10;;;;;;;-142.37;100.00;59669.53;4957032;28;20175;-60
2022/09/13 11:04:53;;;;;;;0.17;0.17;;;;;;;-142.37;100.00;59669.53;4957069;28;20093;-62
2022/09/13 11:07:42;;;;;;;0.38;0.38;;;;;;;-142.37;100.00;59669.53;4972677;28;20400;-59
2022/09/13 11:10:23;;;;;;;0.85;0.85;;;;;;;-142.37;100.00;59669.53;4956356;28;20565;-59
2022/09/13 11:13:09;;;;;;;1.25;0.52;;;;;;;-142.37;100.00;59669.53;4957138;28;20125;-60
2022/09/13 11:15:48;;;;;;;0.20;0.20;;;;;;;-142.37;100.00;59669.53;4949216;28;20042;-62
2022/09/13 11:18:38;;;;;;;0.35;0.15;;;;;;;-142.37;100.00;59669.53;4972407;28;20510;-62
2022/09/13 11:21:15;;;;;;;0.25;0.25;;;;;;;-142.37;100.00;59669.53;4973990;28;20034;-60
2022/09/13 11:24:09;;;;;;;0.47;0.47;;;;;;;-142.37;100.00;59669.53;4974185;28;20113;-63
2022/09/13 11:26:49;;;;;;;0.20;0.20;;;;;;;-142.37;100.00;59669.53;4973917;28;20035;-63
2022/09/13 11:29:29;;;;;;;0.20;0.20;;;;;;;-142.37;100.00;59669.53;4973141;28;20027;-65
2022/09/13 11:32:27;;;;;;;2.35;0.28;;;;;;;-142.37;100.00;59669.53;4974243;28;20066;-64
2022/09/13 11:35:30;;;;;;;0.38;0.13;;;;;;;-142.37;100.00;59669.53;4936375;28;20035;-65
2022/09/13 11:38:05;;;;;;;1.13;1.02;;;;;;;-142.37;100.00;59669.53;4956608;28;20042;-67